< Cyclone 200703 2007 Season Cyclone 200711 >
Cyclone 200705 (NELSON)
General InformationTrack Information on Google MapsDetailed Wind InformationList of All Images || ResourceGoogle EarthGE AnimationAtom FeedGeoJSON
Detalied Best Track (Time Zone = UTC)
Year Month Day Hour Lat. Long. Pressure (hPa) Wind (kt) Class Image Chart
2007 1 31 15 -11.0 137.0 1001 20 2 Image --
2007 1 31 18 -11.0 137.1 1001 20 2 Image --
2007 1 31 21 -11.1 137.1 1000 20 2 Image --
2007 2 1 00 -11.0 137.4 1000 25 2 Image --
2007 2 1 03 -11.1 137.8 1000 25 2 Image --
2007 2 1 06 -11.3 138.2 998 30 2 Image --
2007 2 1 09 -11.5 138.7 998 30 2 Image --
2007 2 1 12 -11.6 139.1 998 30 2 Image --
2007 2 1 15 -11.9 139.3 998 25 2 Image --
2007 2 1 18 -12.4 139.4 998 25 2 Image --
2007 2 1 21 -12.8 139.1 998 25 2 Image --
2007 2 2 00 -13.2 138.8 997 30 2 Image --
2007 2 2 03 -13.5 138.4 997 30 2 Image --
2007 2 2 06 -13.7 138.3 998 25 2 Image --
2007 2 2 09 -13.9 138.2 998 25 2 Image --
2007 2 2 12 -14.0 138.1 998 25 2 Image --
2007 2 2 15 -14.1 138.1 998 25 2 Image --
2007 2 2 18 -14.4 138.1 998 25 2 Image --
2007 2 2 21 -14.5 138.0 998 25 2 Image --
2007 2 3 00 -14.6 137.9 999 25 2 Image --
2007 2 3 03 -14.7 137.8 1000 25 2 Image --
2007 2 3 06 -14.8 137.8 998 25 2 Image --
2007 2 3 09 -14.9 137.8 998 25 2 Image --
2007 2 3 12 -15.0 137.9 998 25 2 Image --
2007 2 3 15 -15.1 137.8 998 25 2 Image --
2007 2 3 18 -15.2 137.7 998 25 2 Image --
2007 2 3 21 -15.4 137.6 998 25 2 Image --
2007 2 4 00 -15.5 137.4 1000 25 2 Image --
2007 2 4 03 -15.6 137.3 999 25 2 Image --
2007 2 4 06 -15.8 137.2 999 25 2 Image --
2007 2 4 09 -15.7 137.1 999 25 2 Image --
2007 2 4 12 -15.6 137.1 999 25 2 Image --
2007 2 4 15 -15.6 137.0 999 25 2 Image --
2007 2 4 18 -15.6 136.9 998 25 2 Image --
2007 2 4 21 -15.6 137.0 998 25 2 Image --
2007 2 5 00 -15.7 137.2 999 25 2 Image --
2007 2 5 03 -15.6 137.3 997 25 2 Image --
2007 2 5 06 -15.6 137.3 996 25 2 Image --
2007 2 5 09 -15.6 137.6 997 25 2 Image --
2007 2 5 12 -15.4 138.0 997 25 2 Image --
2007 2 5 15 -15.5 138.3 996 30 2 Image --
2007 2 5 18 -15.7 138.6 995 32 2 Image --
2007 2 5 21 -15.8 138.9 992 35 3 Image --
2007 2 6 00 -15.8 139.3 992 35 3 Image --
2007 2 6 03 -15.9 139.8 990 40 3 Image --
2007 2 6 06 -15.9 140.4 988 45 3 Image --
2007 2 6 09 -16.0 140.7 985 50 4 Image --
2007 2 6 12 -16.1 141.0 985 50 4 Image --
2007 2 6 15 -16.1 141.2 985 50 4 Image --
2007 2 6 18 -16.1 141.4 985 50 4 Image --
2007 2 6 21 -16.1 141.5 988 45 3 Image --
2007 2 7 00 -16.1 141.6 990 35 3 Image --
2007 2 7 03 -16.1 142.0 992 30 2 Image --
2007 2 7 06 -16.0 142.5 992 30 2 Image --
2007 2 7 09 -15.9 143.1 994 20 2 Image --
2007 2 7 12 -15.8 143.7 996 15 2 Image --
< Cyclone 200703 2007 Season Cyclone 200711 >

Help